createdAt,value
2023-03-02T00:01:04.519Z,1.07
2023-03-02T00:03:36.987Z,1.10
2023-03-02T00:06:09.808Z,1.12
2023-03-02T00:08:41.112Z,1.08
2023-03-02T00:11:11.818Z,1.07
2023-03-02T00:13:43.549Z,0.86
2023-03-02T00:16:15.667Z,0.80
2023-03-02T00:18:46.230Z,0.72
2023-03-02T00:21:16.860Z,0.76
2023-03-02T00:23:49.001Z,0.91
2023-03-02T00:26:21.919Z,0.88
2023-03-02T00:28:52.469Z,0.86
2023-03-02T00:31:23.060Z,0.83
2023-03-02T00:33:57.100Z,0.84
2023-03-02T00:36:27.725Z,0.88
2023-03-02T00:38:58.247Z,1.04
2023-03-02T00:41:29.110Z,0.96
2023-03-02T00:43:59.610Z,0.88
2023-03-02T00:46:31.296Z,0.99
2023-03-02T00:49:03.641Z,1.06
2023-03-02T00:51:34.620Z,0.96
2023-03-02T00:54:06.181Z,0.94
2023-03-02T00:56:37.038Z,0.86
2023-03-02T00:59:30.332Z,0.86
2023-03-02T01:02:01.770Z,0.94
2023-03-02T01:04:36.698Z,0.87
2023-03-02T01:07:10.753Z,0.88
2023-03-02T01:09:43.380Z,0.85
2023-03-02T01:12:14.698Z,0.80
2023-03-02T01:14:49.122Z,0.72
2023-03-02T01:17:23.020Z,0.81
2023-03-02T01:19:55.796Z,0.82
2023-03-02T01:22:26.589Z,1.11
2023-03-02T01:24:58.268Z,1.12
2023-03-02T01:27:31.263Z,0.85
2023-03-02T01:30:01.821Z,0.76
2023-03-02T01:32:34.168Z,0.77
2023-03-02T01:35:06.093Z,0.98
2023-03-02T01:37:36.751Z,0.84
2023-03-02T01:40:09.170Z,0.80
2023-03-02T01:42:42.519Z,0.70
2023-03-02T01:45:51.233Z,0.72
2023-03-02T01:48:30.495Z,0.56
2023-03-02T01:51:03.200Z,0.62
2023-03-02T01:53:36.492Z,0.56
2023-03-02T01:56:07.998Z,0.46
2023-03-02T01:58:39.339Z,0.34
2023-03-02T02:01:17.378Z,0.33
2023-03-02T02:03:51.299Z,0.33
2023-03-02T02:06:39.578Z,0.24
2023-03-02T02:09:13.371Z,0.18
2023-03-02T02:11:44.905Z,0.31
2023-03-02T02:14:16.174Z,0.32
2023-03-02T02:16:47.227Z,0.24
2023-03-02T02:19:27.137Z,0.45
2023-03-02T02:21:57.889Z,0.34
2023-03-02T02:24:37.352Z,0.28
2023-03-02T02:27:08.207Z,0.28
2023-03-02T02:29:43.447Z,0.24
2023-03-02T02:32:17.191Z,0.26
2023-03-02T02:34:56.578Z,0.19
2023-03-02T02:37:42.518Z,0.18
2023-03-02T02:40:21.692Z,0.16
2023-03-02T02:42:54.148Z,0.34
2023-03-02T02:45:27.311Z,0.14
2023-03-02T02:47:59.613Z,0.14
2023-03-02T02:50:35.825Z,0.18
2023-03-02T02:53:18.173Z,0.14
2023-03-02T02:55:54.563Z,0.15
2023-03-02T02:58:40.333Z,0.06
2023-03-02T03:01:14.367Z,0.09
2023-03-02T03:03:47.903Z,0.06
2023-03-02T03:06:22.757Z,-0.02
2023-03-02T03:08:56.481Z,-0.04
2023-03-02T03:11:30.209Z,-0.10
2023-03-02T03:14:08.352Z,-0.10
2023-03-02T03:16:40.970Z,-0.08
2023-03-02T03:19:14.544Z,0.00
2023-03-02T03:21:45.777Z,-0.14
2023-03-02T03:24:16.322Z,-0.04
2023-03-02T03:26:46.910Z,-0.22
2023-03-02T03:29:19.888Z,-0.08
2023-03-02T03:31:51.643Z,-0.07
2023-03-02T03:34:24.436Z,-0.12
2023-03-02T03:36:55.524Z,-0.04
2023-03-02T03:39:26.132Z,-0.12
2023-03-02T03:41:57.985Z,-0.08
2023-03-02T03:44:28.844Z,-0.20
2023-03-02T03:47:01.898Z,-0.20
2023-03-02T03:49:34.615Z,-0.20
2023-03-02T03:52:05.195Z,-0.21
2023-03-02T03:54:35.700Z,-0.09
2023-03-02T03:57:07.477Z,-0.17
2023-03-02T03:59:37.924Z,-0.21
2023-03-02T04:02:08.407Z,-0.12
2023-03-02T04:04:39.005Z,-0.02
2023-03-02T04:07:10.109Z,-0.10
2023-03-02T04:09:40.977Z,-0.18
2023-03-02T04:12:12.199Z,-0.20
2023-03-02T04:14:42.914Z,-0.20
2023-03-02T04:17:13.372Z,-0.37
2023-03-02T04:19:45.757Z,-0.35
2023-03-02T04:22:17.158Z,-0.32
2023-03-02T04:24:49.016Z,-0.35
2023-03-02T04:27:20.166Z,-0.32
2023-03-02T04:29:53.159Z,-0.21
2023-03-02T04:32:25.721Z,-0.16
2023-03-02T04:34:56.161Z,-0.20
2023-03-02T04:37:27.280Z,-0.34
2023-03-02T04:39:58.050Z,-0.15
2023-03-02T04:42:28.920Z,-0.38
2023-03-02T04:44:59.524Z,-0.47
2023-03-02T04:47:30.113Z,-0.36
2023-03-02T04:50:01.112Z,-0.32
2023-03-02T04:52:31.658Z,-0.28
2023-03-02T04:55:02.294Z,-0.46
2023-03-02T04:57:32.933Z,-0.46
2023-03-02T05:00:04.959Z,-0.36
2023-03-02T05:02:37.189Z,-0.15
2023-03-02T05:05:08.582Z,-0.40
2023-03-02T05:07:39.116Z,-0.54
2023-03-02T05:10:10.716Z,-0.43
2023-03-02T05:13:01.221Z,-0.42
2023-03-02T05:15:34.718Z,-0.48
2023-03-02T05:18:12.138Z,-0.52
2023-03-02T05:20:40.382Z,-0.48
2023-03-02T05:23:15.870Z,-0.47
2023-03-02T05:25:46.512Z,-0.40
2023-03-02T05:28:18.137Z,-0.38
2023-03-02T05:30:49.257Z,-0.46
2023-03-02T05:33:20.512Z,-0.53
2023-03-02T05:35:51.063Z,-0.45
2023-03-02T05:38:21.746Z,-0.61
2023-03-02T05:40:52.397Z,-0.46
2023-03-02T05:43:24.068Z,-0.49
2023-03-02T05:45:57.190Z,-0.60
2023-03-02T05:48:29.883Z,-0.58
2023-03-02T05:51:00.667Z,-0.58
2023-03-02T05:53:31.298Z,-0.64
2023-03-02T05:56:01.881Z,-0.72
2023-03-02T05:58:34.932Z,-0.67
2023-03-02T06:01:14.780Z,-0.80
2023-03-02T06:03:44.369Z,-0.69
2023-03-02T06:06:15.075Z,-0.68
2023-03-02T06:08:48.420Z,-0.74
2023-03-02T06:11:18.350Z,-0.74
2023-03-02T06:13:50.194Z,-0.86
2023-03-02T06:16:20.897Z,-0.79
2023-03-02T06:18:51.407Z,-0.90
2023-03-02T06:21:22.087Z,-0.78
2023-03-02T06:23:52.600Z,-0.82
2023-03-02T06:26:24.243Z,-0.90
2023-03-02T06:28:54.770Z,-0.95
2023-03-02T06:31:25.446Z,-0.73
2023-03-02T06:33:55.966Z,-0.93
2023-03-02T06:36:29.595Z,-0.78
2023-03-02T06:39:01.251Z,-0.94
2023-03-02T06:41:33.832Z,-0.80
2023-03-02T06:44:06.216Z,-0.76
2023-03-02T06:46:37.424Z,-0.68
2023-03-02T06:49:08.934Z,-0.73
2023-03-02T06:51:39.713Z,-0.74
2023-03-02T06:54:10.209Z,-0.68
2023-03-02T06:56:41.158Z,-0.88
2023-03-02T06:59:15.276Z,-0.96
2023-03-02T07:01:47.637Z,-1.00
2023-03-02T07:04:18.134Z,-0.90
2023-03-02T07:06:48.654Z,-1.06
2023-03-02T07:09:19.161Z,-0.91
2023-03-02T07:11:55.343Z,-0.79
2023-03-02T07:14:25.912Z,-0.74
2023-03-02T07:19:40.889Z,-0.52
2023-03-02T07:22:11.632Z,-0.42
2023-03-02T07:24:44.050Z,-0.58
2023-03-02T07:27:16.037Z,-0.36
2023-03-02T07:29:47.230Z,-0.46
2023-03-02T07:32:22.589Z,-0.22
2023-03-02T07:34:53.549Z,-0.24
2023-03-02T07:37:24.757Z,-0.08
2023-03-02T07:40:00.606Z,-0.11
2023-03-02T07:42:31.024Z,0.04
2023-03-02T07:45:04.408Z,-0.14
2023-03-02T07:47:34.817Z,0.08
2023-03-02T07:50:07.165Z,0.04
2023-03-02T07:52:38.151Z,-0.22
2023-03-02T07:55:09.635Z,-0.18
2023-03-02T07:57:40.203Z,-0.09
2023-03-02T08:00:11.939Z,0.16
2023-03-02T08:02:47.898Z,0.19
2023-03-02T08:05:18.800Z,0.59
2023-03-02T08:07:52.173Z,0.50
2023-03-02T08:10:23.113Z,0.80
2023-03-02T08:12:53.737Z,0.50
2023-03-02T08:15:24.878Z,0.54
2023-03-02T08:18:01.976Z,0.52
2023-03-02T08:20:34.303Z,0.20
2023-03-02T08:23:04.917Z,0.70
2023-03-02T08:25:37.455Z,0.73
2023-03-02T08:28:07.736Z,0.40
2023-03-02T08:30:38.792Z,0.42
2023-03-02T08:33:09.323Z,0.74
2023-03-02T08:35:39.928Z,0.60
2023-03-02T08:38:14.430Z,0.75
2023-03-02T08:40:46.190Z,0.94
2023-03-02T08:43:19.498Z,1.26
2023-03-02T08:45:54.615Z,1.51
2023-03-02T08:48:28.182Z,1.38
2023-03-02T08:51:05.314Z,1.40
2023-03-02T08:53:39.378Z,1.34
2023-03-02T08:56:19.597Z,1.23
2023-03-02T08:58:52.283Z,1.39
2023-03-02T09:01:27.102Z,1.39
2023-03-02T09:04:00.492Z,1.82
2023-03-02T09:06:33.671Z,1.78
2023-03-02T09:09:07.948Z,2.04
2023-03-02T09:11:44.333Z,1.54
2023-03-02T09:14:16.725Z,1.98
2023-03-02T09:16:48.956Z,2.12
2023-03-02T09:19:20.281Z,2.29
2023-03-02T09:21:51.432Z,2.32
2023-03-02T09:24:23.623Z,2.99
2023-03-02T09:26:54.586Z,2.52
2023-03-02T09:29:25.336Z,2.72
2023-03-02T09:31:58.491Z,2.90
2023-03-02T09:34:30.793Z,2.90
2023-03-02T09:37:01.566Z,2.76
2023-03-02T09:39:32.077Z,2.82
2023-03-02T09:42:11.715Z,2.70
2023-03-02T09:44:45.468Z,2.40
2023-03-02T09:47:34.572Z,2.90
2023-03-02T09:50:18.156Z,3.08
2023-03-02T09:52:51.947Z,3.24
2023-03-02T09:55:26.333Z,2.94
2023-03-02T09:57:57.556Z,3.02
2023-03-02T10:00:40.453Z,2.54
2023-03-02T10:03:31.722Z,2.70
2023-03-02T10:06:02.517Z,2.10
2023-03-02T10:08:36.323Z,2.62
2023-03-02T10:11:25.025Z,2.73
2023-03-02T10:14:21.550Z,2.62
2023-03-02T10:17:28.887Z,2.14
2023-03-02T10:20:02.573Z,2.74
2023-03-02T10:22:37.921Z,3.29
2023-03-02T10:25:46.866Z,3.16
2023-03-02T10:28:26.199Z,3.50
2023-03-02T10:31:05.683Z,3.12
2023-03-02T10:33:42.335Z,3.74
2023-03-02T10:36:31.027Z,3.50
2023-03-02T10:39:01.662Z,3.12
2023-03-02T10:41:35.753Z,3.29
2023-03-02T10:44:09.394Z,3.80
2023-03-02T10:46:42.028Z,3.90
2023-03-02T10:49:33.930Z,4.19
2023-03-02T10:52:20.154Z,3.90
2023-03-02T10:54:54.515Z,3.94
2023-03-02T10:57:37.148Z,3.86
2023-03-02T11:00:27.796Z,3.44
2023-03-02T11:03:01.428Z,3.86
2023-03-02T11:05:42.666Z,3.84
2023-03-02T11:08:18.956Z,3.77
2023-03-02T11:11:06.817Z,3.72
2023-03-02T11:13:40.612Z,3.57
2023-03-02T11:16:24.078Z,3.64
2023-03-02T11:19:01.055Z,3.43
2023-03-02T11:21:36.340Z,3.78
2023-03-02T11:24:34.503Z,3.17
2023-03-02T11:27:09.296Z,3.34
2023-03-02T11:29:42.949Z,3.26
2023-03-02T11:32:34.812Z,3.44
2023-03-02T11:35:31.534Z,3.54
2023-03-02T11:38:17.341Z,3.36
2023-03-02T11:40:58.263Z,3.44
2023-03-02T11:43:30.257Z,3.43
2023-03-02T11:46:13.917Z,3.56
2023-03-02T11:48:42.493Z,3.65
2023-03-02T11:51:17.696Z,3.68
2023-03-02T11:54:08.905Z,3.50
2023-03-02T11:56:40.874Z,3.66
2023-03-02T11:59:21.585Z,3.50
2023-03-02T12:01:59.504Z,2.99
2023-03-02T12:04:33.617Z,3.17
2023-03-02T12:07:23.212Z,3.48
2023-03-02T12:10:09.777Z,3.61
2023-03-02T12:12:44.278Z,3.54
2023-03-02T12:15:38.819Z,3.76
2023-03-02T12:18:27.708Z,3.72
2023-03-02T12:21:06.860Z,3.93
2023-03-02T12:23:46.252Z,3.92
2023-03-02T12:26:22.583Z,4.26
2023-03-02T12:29:15.557Z,3.73
2023-03-02T12:31:55.335Z,4.17
2023-03-02T12:34:37.621Z,4.12
2023-03-02T12:37:16.943Z,4.38
2023-03-02T12:39:53.220Z,4.06
2023-03-02T12:42:46.958Z,4.07
2023-03-02T12:45:37.281Z,3.82
2023-03-02T12:48:26.877Z,3.88
2023-03-02T12:51:00.622Z,4.11
2023-03-02T12:53:33.239Z,4.18
2023-03-02T12:56:04.330Z,4.20
2023-03-02T12:58:35.229Z,4.18
2023-03-02T13:01:06.792Z,3.82
2023-03-02T13:03:40.359Z,3.89
2023-03-02T13:06:17.824Z,4.24
2023-03-02T13:08:54.847Z,4.56
2023-03-02T13:11:29.596Z,4.52
2023-03-02T13:14:06.120Z,4.70
2023-03-02T13:16:38.185Z,4.52
2023-03-02T13:19:12.027Z,4.38
2023-03-02T13:21:44.284Z,4.68
2023-03-02T13:24:32.220Z,4.95
2023-03-02T13:27:11.292Z,4.82
2023-03-02T13:29:41.867Z,4.56
2023-03-02T13:32:24.493Z,4.53
2023-03-02T13:34:58.725Z,4.60
2023-03-02T13:37:42.280Z,4.62
2023-03-02T13:40:29.637Z,4.58
2023-03-02T13:43:00.216Z,4.76
2023-03-02T13:45:34.899Z,4.77
2023-03-02T13:48:16.141Z,4.62
2023-03-02T13:51:16.692Z,4.34
2023-03-02T13:54:09.056Z,4.24
2023-03-02T13:56:41.612Z,4.40
2023-03-02T13:59:18.112Z,4.03
2023-03-02T14:01:48.721Z,4.12
2023-03-02T14:04:25.304Z,4.22
2023-03-02T14:06:57.870Z,4.82
2023-03-02T14:09:29.458Z,4.72
2023-03-02T14:12:00.158Z,4.60
2023-03-02T14:14:32.826Z,4.60
2023-03-02T14:17:05.982Z,4.56
2023-03-02T14:19:39.952Z,4.62
2023-03-02T14:22:13.653Z,4.33
2023-03-02T14:24:44.228Z,4.08
2023-03-02T14:27:17.113Z,3.88
2023-03-02T14:29:48.408Z,3.87
2023-03-02T14:32:19.047Z,3.96
2023-03-02T14:34:49.576Z,3.72
2023-03-02T14:37:22.924Z,3.93
2023-03-02T14:39:55.573Z,4.14
2023-03-02T14:42:27.210Z,4.16
2023-03-02T14:45:00.473Z,3.88
2023-03-02T14:47:32.659Z,3.86
2023-03-02T14:50:05.317Z,3.43
2023-03-02T14:52:41.823Z,3.45
2023-03-02T14:55:28.390Z,3.26
2023-03-02T14:58:02.619Z,3.11
2023-03-02T15:00:33.993Z,3.24
2023-03-02T15:03:05.507Z,2.92
2023-03-02T15:05:36.542Z,2.86
2023-03-02T15:08:07.091Z,2.64
2023-03-02T15:10:39.150Z,2.52
2023-03-02T15:13:11.967Z,2.36
2023-03-02T15:15:44.292Z,2.30
2023-03-02T15:18:18.384Z,2.28
2023-03-02T15:20:48.950Z,2.40
2023-03-02T15:23:19.361Z,2.35
2023-03-02T15:25:50.078Z,2.20
2023-03-02T15:28:21.651Z,2.07
2023-03-02T15:30:52.020Z,2.10
2023-03-02T15:33:22.929Z,2.21
2023-03-02T15:35:56.488Z,2.33
2023-03-02T15:38:28.538Z,2.22
2023-03-02T15:40:59.426Z,2.10
2023-03-02T15:43:29.913Z,2.04
2023-03-02T15:46:02.516Z,2.17
2023-03-02T15:48:33.213Z,2.12
2023-03-02T15:51:06.710Z,2.24
2023-03-02T15:53:38.768Z,2.20
2023-03-02T15:56:13.907Z,2.04
2023-03-02T15:58:49.584Z,2.10
2023-03-02T16:01:21.604Z,2.24
2023-03-02T16:03:53.820Z,2.21
2023-03-02T16:06:24.332Z,2.20
2023-03-02T16:08:56.154Z,2.20
2023-03-02T16:11:26.600Z,2.12
2023-03-02T16:13:58.078Z,2.38
2023-03-02T16:16:28.824Z,2.38
2023-03-02T16:19:00.158Z,2.24
2023-03-02T16:21:31.589Z,2.17
2023-03-02T16:24:05.481Z,1.96
2023-03-02T16:26:38.476Z,2.06
2023-03-02T16:29:09.038Z,2.06
2023-03-02T16:31:41.862Z,2.07
2023-03-02T16:34:12.439Z,2.08
2023-03-02T16:36:44.417Z,1.87
2023-03-02T16:39:15.505Z,1.73
2023-03-02T16:41:46.493Z,1.80
2023-03-02T16:44:17.228Z,1.78
2023-03-02T16:46:48.329Z,1.74
2023-03-02T16:49:19.086Z,1.75
2023-03-02T16:51:51.025Z,1.83
2023-03-02T16:54:21.518Z,1.62
2023-03-02T16:56:51.992Z,1.63
2023-03-02T16:59:22.550Z,1.54
2023-03-02T17:01:53.976Z,1.25
2023-03-02T17:04:26.321Z,1.42
2023-03-02T17:07:01.069Z,1.46
2023-03-02T17:09:34.109Z,1.50
2023-03-02T17:12:07.493Z,1.61
2023-03-02T17:14:37.861Z,1.79
2023-03-02T17:17:08.517Z,1.81
2023-03-02T17:19:39.088Z,1.90
2023-03-02T17:22:10.706Z,1.68
2023-03-02T17:24:41.302Z,1.76
2023-03-02T17:27:24.139Z,1.52
2023-03-02T17:29:44.823Z,1.44
2023-03-02T17:32:15.696Z,1.32
2023-03-02T17:34:46.188Z,1.22
2023-03-02T17:37:17.575Z,1.12
2023-03-02T17:39:51.051Z,0.94
2023-03-02T17:42:21.592Z,0.97
2023-03-02T17:44:52.765Z,0.90
2023-03-02T17:47:24.917Z,0.96
2023-03-02T17:49:58.205Z,0.84
2023-03-02T17:52:30.407Z,0.87
2023-03-02T17:55:00.908Z,0.90
2023-03-02T17:57:31.862Z,0.93
2023-03-02T18:00:03.937Z,1.08
2023-03-02T18:02:37.257Z,1.10
2023-03-02T18:05:10.238Z,1.08
2023-03-02T18:07:40.708Z,1.14
2023-03-02T18:10:13.985Z,1.10
2023-03-02T18:12:45.591Z,1.08
2023-03-02T18:15:15.907Z,1.03
2023-03-02T18:17:46.513Z,1.14
2023-03-02T18:20:17.743Z,1.12
2023-03-02T18:22:48.377Z,1.10
2023-03-02T18:25:19.160Z,1.14
2023-03-02T18:27:49.644Z,1.10
2023-03-02T18:30:21.802Z,1.08
2023-03-02T18:32:54.047Z,1.10
2023-03-02T18:35:29.192Z,1.12
2023-03-02T18:37:59.712Z,0.94
2023-03-02T18:40:32.012Z,0.88
2023-03-02T18:43:03.122Z,0.84
2023-03-02T18:45:34.688Z,0.70
2023-03-02T18:48:05.959Z,0.58
2023-03-02T18:50:37.119Z,0.46
2023-03-02T18:53:09.981Z,0.60
2023-03-02T18:55:42.948Z,0.56
2023-03-02T18:58:16.859Z,0.62
2023-03-02T19:00:48.217Z,0.60
2023-03-02T19:03:19.439Z,0.77
2023-03-02T19:05:50.003Z,0.75
2023-03-02T19:08:22.232Z,0.82
2023-03-02T19:10:54.204Z,0.80
2023-03-02T19:13:32.793Z,0.86
2023-03-02T19:15:59.928Z,0.72
2023-03-02T19:18:32.112Z,0.78
2023-03-02T19:21:04.128Z,0.60
2023-03-02T19:23:34.806Z,0.52
2023-03-02T19:26:05.440Z,0.51
2023-03-02T19:28:38.085Z,0.67
2023-03-02T19:31:11.269Z,0.62
2023-03-02T19:33:43.034Z,0.67
2023-03-02T19:36:13.717Z,0.71
2023-03-02T19:38:44.502Z,0.70
2023-03-02T19:41:17.292Z,0.78
2023-03-02T19:43:56.357Z,0.86
2023-03-02T19:46:27.850Z,0.84
2023-03-02T19:48:59.976Z,0.78
2023-03-02T19:51:30.528Z,0.97
2023-03-02T19:54:03.106Z,1.00
2023-03-02T19:56:35.118Z,0.84
2023-03-02T19:59:06.906Z,0.53
2023-03-02T20:01:39.304Z,0.56
2023-03-02T20:04:09.803Z,0.50
2023-03-02T20:06:40.473Z,0.47
2023-03-02T20:09:12.585Z,0.32
2023-03-02T20:11:44.567Z,0.28
2023-03-02T20:14:31.248Z,0.40
2023-03-02T20:16:47.905Z,0.42
2023-03-02T20:19:20.548Z,0.22
2023-03-02T20:21:52.082Z,0.33
2023-03-02T20:24:23.043Z,0.18
2023-03-02T20:26:53.610Z,0.20
2023-03-02T20:29:24.131Z,0.24
2023-03-02T20:31:57.988Z,0.23
2023-03-02T20:34:28.920Z,0.38
2023-03-02T20:37:03.066Z,0.55
2023-03-02T20:39:35.967Z,0.52
2023-03-02T20:42:08.126Z,0.40
2023-03-02T20:44:39.917Z,0.70
2023-03-02T20:47:12.797Z,0.75
2023-03-02T20:49:45.052Z,0.70
2023-03-02T20:52:18.123Z,0.54
2023-03-02T20:54:48.673Z,0.43
2023-03-02T20:57:21.692Z,0.47
2023-03-02T20:59:52.404Z,0.49
2023-03-02T21:02:25.527Z,0.50
2023-03-02T21:04:56.440Z,0.44
2023-03-02T21:07:27.154Z,0.41
2023-03-02T21:09:57.978Z,0.38
2023-03-02T21:12:33.208Z,0.54
2023-03-02T21:15:04.533Z,0.34
2023-03-02T21:17:35.557Z,0.40
2023-03-02T21:20:08.154Z,0.33
2023-03-02T21:22:40.185Z,0.31
2023-03-02T21:25:11.353Z,0.19
2023-03-02T21:27:43.794Z,0.18
2023-03-02T21:30:17.938Z,0.12
2023-03-02T21:32:49.142Z,0.22
2023-03-02T21:35:27.421Z,0.08
2023-03-02T21:38:02.413Z,0.05
2023-03-02T21:40:41.360Z,-0.02
2023-03-02T21:43:12.242Z,0.00
2023-03-02T21:45:43.113Z,-0.06
2023-03-02T21:48:16.677Z,0.16
2023-03-02T21:50:51.555Z,0.15
2023-03-02T21:53:23.494Z,0.25
2023-03-02T21:55:54.996Z,0.20
2023-03-02T21:58:25.581Z,0.28
2023-03-02T22:00:56.006Z,0.38
2023-03-02T22:03:27.891Z,0.44
2023-03-02T22:05:58.518Z,0.49
2023-03-02T22:08:29.263Z,0.54
2023-03-02T22:11:00.196Z,0.66
2023-03-02T22:13:34.948Z,0.55
2023-03-02T22:16:21.064Z,0.40
2023-03-02T22:18:57.447Z,0.50
2023-03-02T22:21:34.623Z,0.51
2023-03-02T22:24:14.330Z,0.34
2023-03-02T22:26:48.635Z,0.32
2023-03-02T22:29:25.560Z,0.33
2023-03-02T22:31:58.967Z,0.13
2023-03-02T22:34:32.213Z,0.06
2023-03-02T22:37:14.686Z,0.09
2023-03-02T22:39:48.380Z,0.22
2023-03-02T22:42:21.442Z,0.22
2023-03-02T22:45:04.574Z,0.40
2023-03-02T22:47:35.435Z,0.51
2023-03-02T22:50:24.871Z,0.57
2023-03-02T22:52:57.664Z,0.62
2023-03-02T22:55:43.148Z,0.61
2023-03-02T22:58:34.582Z,0.56
2023-03-02T23:01:08.236Z,0.23
2023-03-02T23:03:41.444Z,0.49
2023-03-02T23:06:27.275Z,0.18
2023-03-02T23:09:00.615Z,0.52
2023-03-02T23:11:34.133Z,0.40
2023-03-02T23:14:23.745Z,0.32
2023-03-02T23:17:15.475Z,-0.02
2023-03-02T23:19:46.198Z,-0.08
2023-03-02T23:22:17.614Z,0.20
2023-03-02T23:24:48.360Z,-0.02
2023-03-02T23:27:18.996Z,-0.17
2023-03-02T23:29:53.136Z,-0.12
2023-03-02T23:32:23.988Z,0.02
2023-03-02T23:34:56.649Z,-0.07
2023-03-02T23:37:27.215Z,-0.16
2023-03-02T23:39:57.801Z,0.02
2023-03-02T23:42:28.528Z,0.18
2023-03-02T23:45:00.450Z,0.09
2023-03-02T23:47:31.007Z,0.42
2023-03-02T23:50:02.899Z,0.38
2023-03-02T23:52:35.020Z,0.31
2023-03-02T23:55:07.283Z,0.12
2023-03-02T23:57:37.842Z,0.26
